Time;durP1;ratioP1;P1;durP2;ratioP2;P2;SDS_P1;SDS_P2;PMS_P1;PMS_P2;Temp;Humidity;BMP_temperature;BMP_pressure;BME280_temperature;BME280_humidity;BME280_pressure;Samples;Min_cycle;Max_cycle;Signal;HPM_P1;HPM_P2
2023/12/15 00:01:50;;;;;;;17.63;16.53;;;5.20;99.90;;;;;;5015179;28;20233;-79
2023/12/15 00:04:18;;;;;;;17.43;16.33;;;5.20;99.90;;;;;;5026815;28;20268;-78
2023/12/15 00:06:45;;;;;;;18.13;16.93;;;5.20;99.90;;;;;;5015737;28;20296;-78
2023/12/15 00:09:12;;;;;;;18.03;16.83;;;5.20;99.90;;;;;;5015216;28;20705;-80
2023/12/15 00:11:38;;;;;;;18.17;16.97;;;5.10;99.90;;;;;;5033372;28;20201;-79
2023/12/15 00:14:06;;;;;;;18.47;17.20;;;5.10;99.90;;;;;;5015461;28;20244;-79
2023/12/15 00:16:33;;;;;;;18.20;17.00;;;5.10;99.90;;;;;;5015575;28;20211;-78
2023/12/15 00:19:00;;;;;;;17.47;16.27;;;5.10;99.90;;;;;;5015062;28;20212;-80
2023/12/15 00:21:27;;;;;;;17.70;16.53;;;5.10;99.90;;;;;;5033387;28;20204;-78
2023/12/15 00:23:55;;;;;;;17.40;16.30;;;5.10;99.90;;;;;;5033303;28;20200;-79
2023/12/15 00:26:21;;;;;;;18.20;16.90;;;5.10;99.90;;;;;;5032974;28;20571;-78
2023/12/15 00:28:48;;;;;;;18.17;16.97;;;5.10;99.90;;;;;;5032822;28;20209;-79
2023/12/15 00:31:16;;;;;;;18.00;16.83;;;5.00;99.90;;;;;;5026038;28;20192;-79
2023/12/15 00:33:43;;;;;;;17.63;16.53;;;5.00;99.90;;;;;;5011660;28;20252;-80
2023/12/15 00:36:10;;;;;;;18.13;16.93;;;5.00;99.90;;;;;;5031224;28;20216;-79
2023/12/15 00:38:37;;;;;;;17.53;16.43;;;5.10;99.90;;;;;;5032654;28;20197;-78
2023/12/15 00:41:04;;;;;;;17.13;16.03;;;5.10;99.90;;;;;;5005913;28;20205;-79
2023/12/15 00:43:31;;;;;;;17.57;16.37;;;5.10;99.90;;;;;;5032750;28;20200;-79
2023/12/15 00:45:58;;;;;;;16.97;15.87;;;5.00;99.90;;;;;;5032540;28;20218;-81
2023/12/15 00:48:26;;;;;;;17.07;15.97;;;5.00;99.90;;;;;;5014887;28;20212;-79
2023/12/15 00:50:52;;;;;;;17.70;16.60;;;4.90;99.90;;;;;;5032376;28;20209;-80
2023/12/15 00:53:20;;;;;;;17.57;16.37;;;4.90;99.90;;;;;;5014766;28;20279;-78
2023/12/15 00:55:46;;;;;;;18.37;17.03;;;4.90;99.90;;;;;;5014339;28;20255;-83
2023/12/15 00:58:14;;;;;;;16.83;15.73;;;4.90;99.90;;;;;;5032278;28;20267;-79
2023/12/15 01:00:41;;;;;;;18.07;16.87;;;4.90;99.90;;;;;;5032197;28;20196;-80
2023/12/15 01:03:07;;;;;;;17.67;16.50;;;4.80;99.90;;;;;;5014565;28;20224;-79
2023/12/15 01:05:35;;;;;;;17.73;16.53;;;4.90;99.90;;;;;;5014526;28;20228;-78
2023/12/15 01:08:02;;;;;;;17.50;16.37;;;4.80;99.90;;;;;;5014627;28;20617;-78
2023/12/15 01:10:31;;;;;;;17.43;16.23;;;4.80;99.90;;;;;;5031738;28;20201;-78
2023/12/15 01:12:58;;;;;;;16.67;15.67;;;4.80;99.90;;;;;;5014497;28;20640;-78
2023/12/15 01:15:25;;;;;;;16.93;15.83;;;4.80;99.90;;;;;;5032213;28;20225;-78
2023/12/15 01:17:51;;;;;;;18.10;16.80;;;4.80;99.90;;;;;;5032221;28;20228;-79
2023/12/15 01:20:18;;;;;;;17.90;16.80;;;4.80;99.90;;;;;;5014134;28;20224;-79
2023/12/15 01:22:46;;;;;;;17.63;16.43;;;4.80;99.90;;;;;;5032360;28;20616;-78
2023/12/15 01:25:13;;;;;;;17.20;16.10;;;4.80;99.90;;;;;;5013394;28;20597;-78
2023/12/15 01:27:40;;;;;;;17.00;16.00;;;4.80;99.90;;;;;;5013919;28;20642;-80
2023/12/15 01:30:08;;;;;;;17.83;16.73;;;4.80;99.90;;;;;;5031940;28;20262;-78
2023/12/15 01:32:34;;;;;;;16.83;15.83;;;4.80;99.90;;;;;;5014162;28;20815;-78
2023/12/15 01:35:01;;;;;;;17.50;16.30;;;4.80;99.90;;;;;;5011493;28;20255;-78
2023/12/15 01:37:28;;;;;;;18.13;16.83;;;4.90;99.90;;;;;;5031955;28;20193;-78
2023/12/15 01:39:56;;;;;;;17.77;16.57;;;4.90;99.90;;;;;;5013853;28;20254;-80
2023/12/15 01:42:23;;;;;;;17.70;16.50;;;4.90;99.90;;;;;;5006775;28;20609;-79
2023/12/15 01:44:50;;;;;;;17.40;16.20;;;4.90;99.90;;;;;;5031857;28;20215;-79
2023/12/15 01:47:18;;;;;;;18.57;17.27;;;4.90;99.90;;;;;;5019269;28;20199;-78
2023/12/15 01:49:46;;;;;;;18.10;16.90;;;5.00;99.90;;;;;;5013833;28;20288;-79
2023/12/15 01:52:13;;;;;;;18.17;16.73;;;5.00;99.90;;;;;;5031617;28;20257;-79
2023/12/15 01:54:39;;;;;;;17.50;16.30;;;5.00;99.90;;;;;;5006979;28;20228;-80
2023/12/15 01:57:08;;;;;;;18.50;17.17;;;5.00;99.90;;;;;;5031349;28;20724;-79
2023/12/15 01:59:42;;;;;;;18.47;17.27;;;5.00;99.90;;;;;;5031513;28;20200;-78
2023/12/15 02:02:09;;;;;;;18.80;17.50;;;5.00;99.90;;;;;;5031616;28;20200;-78
2023/12/15 02:04:36;;;;;;;18.67;17.47;;;4.90;99.90;;;;;;5013649;28;20223;-79
2023/12/15 02:07:04;;;;;;;18.67;17.47;;;4.90;99.90;;;;;;5013864;28;20255;-78
2023/12/15 02:09:30;;;;;;;19.27;17.90;;;4.90;99.90;;;;;;5010478;28;20236;-79
2023/12/15 02:11:57;;;;;;;19.00;17.70;;;4.80;99.90;;;;;;5028461;28;20202;-79
2023/12/15 02:14:25;;;;;;;18.27;17.07;;;4.80;99.90;;;;;;5013724;28;20247;-79
2023/12/15 02:16:52;;;;;;;19.07;17.77;;;4.80;99.90;;;;;;5031253;28;20204;-78
2023/12/15 02:19:19;;;;;;;19.07;17.87;;;4.80;99.90;;;;;;5031162;28;20188;-80
2023/12/15 02:21:46;;;;;;;18.10;16.90;;;4.80;99.90;;;;;;5031440;28;20258;-79
2023/12/15 02:24:14;;;;;;;18.63;17.23;;;4.80;99.90;;;;;;5031070;28;20185;-80
2023/12/15 02:26:41;;;;;;;20.07;18.67;;;4.80;99.90;;;;;;5007503;28;20205;-78
2023/12/15 02:29:07;;;;;;;20.27;18.87;;;4.80;99.90;;;;;;5029296;28;20224;-78
2023/12/15 02:31:34;;;;;;;19.17;17.67;;;4.80;99.90;;;;;;5021739;28;20201;-80
2023/12/15 02:34:01;;;;;;;19.77;18.27;;;4.80;99.90;;;;;;5011114;28;20231;-79
2023/12/15 02:36:28;;;;;;;19.27;17.97;;;4.80;99.90;;;;;;5013890;28;20247;-80
2023/12/15 02:38:55;;;;;;;20.47;19.07;;;4.80;99.90;;;;;;5013236;28;20273;-78
2023/12/15 02:41:23;;;;;;;20.43;18.93;;;4.80;99.90;;;;;;5013412;28;20192;-80
2023/12/15 02:43:50;;;;;;;20.30;18.80;;;4.70;99.90;;;;;;5006454;28;20256;-80
2023/12/15 02:46:17;;;;;;;18.93;17.67;;;4.70;99.90;;;;;;5012066;28;20228;-78
2023/12/15 02:48:44;;;;;;;19.80;18.50;;;4.70;99.90;;;;;;5013062;28;20201;-78
2023/12/15 02:51:11;;;;;;;20.33;18.83;;;4.70;99.90;;;;;;5013552;28;20209;-80
2023/12/15 02:53:40;;;;;;;20.20;18.70;;;4.70;99.90;;;;;;4999815;28;20304;-78
2023/12/15 02:56:08;;;;;;;19.20;17.90;;;4.70;99.90;;;;;;5030756;28;20252;-78
2023/12/15 02:58:36;;;;;;;19.43;18.03;;;4.70;99.90;;;;;;5033125;28;20196;-78
2023/12/15 03:01:02;;;;;;;19.50;18.10;;;4.70;99.90;;;;;;5014327;28;20209;-79
2023/12/15 03:03:29;;;;;;;19.53;18.17;;;4.70;99.90;;;;;;5017173;28;20200;-80
2023/12/15 03:05:56;;;;;;;19.50;18.20;;;4.70;99.90;;;;;;5017145;28;20224;-78
2023/12/15 03:08:24;;;;;;;19.37;17.97;;;4.70;99.90;;;;;;5033864;28;20228;-78
2023/12/15 03:10:55;;;;;;;19.90;18.40;;;4.60;99.90;;;;;;5029979;28;20197;-78
2023/12/15 03:13:21;;;;;;;19.67;18.20;;;4.60;99.90;;;;;;5034522;28;20235;-78
2023/12/15 03:15:50;;;;;;;20.43;18.93;;;4.60;99.90;;;;;;5016658;28;20224;-79
2023/12/15 03:18:17;;;;;;;19.43;18.03;;;4.70;99.90;;;;;;5034500;28;20208;-78
2023/12/15 03:20:45;;;;;;;19.57;18.17;;;4.70;99.90;;;;;;5012851;28;20577;-79
2023/12/15 03:23:12;;;;;;;19.70;18.40;;;4.70;99.90;;;;;;5033227;28;20200;-78
2023/12/15 03:25:39;;;;;;;19.90;18.40;;;4.70;99.90;;;;;;5016324;28;20622;-79
2023/12/15 03:28:06;;;;;;;20.33;18.93;;;4.70;99.90;;;;;;5034053;28;20672;-79
2023/12/15 03:30:32;;;;;;;20.30;18.80;;;4.60;99.90;;;;;;5009258;28;20211;-78
2023/12/15 03:33:00;;;;;;;19.50;18.10;;;4.70;99.90;;;;;;5034250;28;20227;-79
2023/12/15 03:35:27;;;;;;;19.97;18.33;;;4.70;99.90;;;;;;5034075;28;20215;-78
2023/12/15 03:37:54;;;;;;;19.67;18.27;;;4.70;99.90;;;;;;5016408;28;20688;-79
2023/12/15 03:40:21;;;;;;;21.37;19.40;;;4.70;99.90;;;;;;5015306;28;20197;-78
2023/12/15 03:42:47;;;;;;;19.57;18.07;;;4.70;99.90;;;;;;5015586;28;20633;-79
2023/12/15 03:45:14;;;;;;;20.00;18.70;;;4.70;99.90;;;;;;5015978;28;20715;-78
2023/12/15 03:47:41;;;;;;;19.03;17.73;;;4.70;99.90;;;;;;5033731;28;20564;-78
2023/12/15 03:50:09;;;;;;;19.87;18.47;;;4.70;99.90;;;;;;5032824;28;20192;-78
2023/12/15 03:52:36;;;;;;;20.57;18.93;;;4.70;99.90;;;;;;5033027;28;20254;-79
2023/12/15 03:55:04;;;;;;;20.87;19.37;;;4.70;99.90;;;;;;5010928;28;20227;-83
2023/12/15 03:57:30;;;;;;;20.70;19.20;;;4.70;99.90;;;;;;5009806;28;20209;-82
2023/12/15 03:59:57;;;;;;;20.23;18.80;;;4.60;99.90;;;;;;5008075;28;20209;-82
2023/12/15 04:02:24;;;;;;;20.53;18.93;;;4.60;99.90;;;;;;5025984;28;20636;-82
2023/12/15 04:04:51;;;;;;;21.37;19.87;;;4.60;99.90;;;;;;5007625;28;20209;-82
2023/12/15 04:07:19;;;;;;;21.20;19.60;;;4.60;99.90;;;;;;4998355;28;20204;-82
2023/12/15 04:09:46;;;;;;;21.37;19.87;;;4.70;99.90;;;;;;5000896;28;20216;-83
2023/12/15 04:12:12;;;;;;;21.33;19.63;;;4.60;99.90;;;;;;5006758;28;20577;-82
2023/12/15 04:14:39;;;;;;;21.83;20.30;;;4.60;99.90;;;;;;5027015;28;20221;-82
2023/12/15 04:17:06;;;;;;;21.73;20.00;;;4.60;99.90;;;;;;5012867;28;20676;-86
2023/12/15 04:19:33;;;;;;;20.67;19.17;;;4.60;99.90;;;;;;5030349;28;20198;-81
2023/12/15 04:21:59;;;;;;;21.97;20.00;;;4.60;99.90;;;;;;5016380;28;20201;-79
2023/12/15 04:24:28;;;;;;;20.43;19.03;;;4.60;99.90;;;;;;5015166;28;20223;-80
2023/12/15 04:26:54;;;;;;;21.43;19.73;;;4.60;99.90;;;;;;5015200;28;20224;-79
2023/12/15 04:29:22;;;;;;;22.13;20.53;;;4.60;99.90;;;;;;5015847;28;20211;-79
2023/12/15 04:31:49;;;;;;;22.27;20.60;;;4.60;99.90;;;;;;5016170;28;20200;-80
2023/12/15 04:34:16;;;;;;;21.60;20.00;;;4.60;99.90;;;;;;5033467;28;20212;-79
2023/12/15 04:36:42;;;;;;;21.73;20.17;;;4.60;99.90;;;;;;5016287;28;20208;-79
2023/12/15 04:39:09;;;;;;;21.67;20.17;;;4.60;99.90;;;;;;5015575;28;20607;-79
2023/12/15 04:41:37;;;;;;;22.13;20.47;;;4.60;99.90;;;;;;5015640;28;20238;-79
2023/12/15 04:44:04;;;;;;;22.23;20.53;;;4.60;99.90;;;;;;5015853;28;20190;-79
2023/12/15 04:46:32;;;;;;;22.47;20.77;;;4.60;99.90;;;;;;5033599;28;20250;-80
2023/12/15 04:49:00;;;;;;;22.00;20.33;;;4.60;99.90;;;;;;5033042;28;20203;-79
2023/12/15 04:51:27;;;;;;;21.53;19.83;;;4.60;99.90;;;;;;5032975;28;20251;-80
2023/12/15 04:53:54;;;;;;;21.30;19.67;;;4.60;99.90;;;;;;5014071;28;20243;-79
2023/12/15 04:56:21;;;;;;;21.70;20.00;;;4.60;99.90;;;;;;5026392;28;20270;-79
2023/12/15 04:58:49;;;;;;;20.63;19.10;;;4.60;99.90;;;;;;5015278;28;20200;-80
2023/12/15 05:01:16;;;;;;;21.20;19.70;;;4.60;99.90;;;;;;5011356;28;20343;-80
2023/12/15 05:03:44;;;;;;;21.03;19.53;;;4.60;99.90;;;;;;5010243;28;20200;-79
2023/12/15 05:06:17;;;;;;;21.23;19.73;;;4.60;99.90;;;;;;5016024;28;20256;-79
2023/12/15 05:08:44;;;;;;;20.50;19.10;;;4.60;99.90;;;;;;5031551;28;20200;-80
2023/12/15 05:11:11;;;;;;;21.50;20.00;;;4.60;99.90;;;;;;5012520;28;20205;-80
2023/12/15 05:13:38;;;;;;;21.07;19.57;;;4.60;99.90;;;;;;5033367;28;20746;-79
2023/12/15 05:16:07;;;;;;;21.93;20.43;;;4.60;99.90;;;;;;5016757;28;20226;-79
2023/12/15 05:18:34;;;;;;;22.10;20.60;;;4.60;99.90;;;;;;5033260;28;20189;-79
2023/12/15 05:21:01;;;;;;;21.70;20.30;;;4.60;99.90;;;;;;5015304;28;20200;-79
2023/12/15 05:23:28;;;;;;;21.83;20.43;;;4.60;99.90;;;;;;5033224;28;20321;-79
2023/12/15 05:25:55;;;;;;;22.13;20.63;;;4.60;99.90;;;;;;5012241;28;20239;-80
2023/12/15 05:28:22;;;;;;;22.47;20.87;;;4.60;99.90;;;;;;5031042;28;20196;-79
2023/12/15 05:30:49;;;;;;;21.63;20.23;;;4.60;99.90;;;;;;5033047;28;20201;-79
2023/12/15 05:33:17;;;;;;;22.03;20.60;;;4.60;99.90;;;;;;5016350;28;20227;-79
2023/12/15 05:35:44;;;;;;;22.43;21.03;;;4.60;99.90;;;;;;5014989;28;20655;-79
2023/12/15 05:38:10;;;;;;;22.10;20.70;;;4.60;99.90;;;;;;5032631;28;20218;-79
2023/12/15 05:40:37;;;;;;;22.70;21.10;;;4.70;99.90;;;;;;5033249;28;20198;-77
2023/12/15 05:43:04;;;;;;;21.20;19.63;;;4.70;99.90;;;;;;5033028;28;20207;-77
2023/12/15 05:45:31;;;;;;;21.10;19.60;;;4.70;99.90;;;;;;5015488;28;20216;-79
2023/12/15 05:47:57;;;;;;;20.63;19.23;;;4.60;99.90;;;;;;5027208;28;20258;-79
2023/12/15 05:50:26;;;;;;;20.60;19.20;;;4.60;99.90;;;;;;5015088;28;20213;-80
2023/12/15 05:52:53;;;;;;;21.27;19.77;;;4.60;99.90;;;;;;5014781;28;20229;-80
2023/12/15 05:55:20;;;;;;;20.87;19.37;;;4.60;99.90;;;;;;5015037;28;20282;-79
2023/12/15 05:57:47;;;;;;;21.10;19.60;;;4.60;99.90;;;;;;5015021;28;20202;-79
2023/12/15 06:00:15;;;;;;;20.70;19.10;;;4.60;99.90;;;;;;5014481;28;20676;-79
2023/12/15 06:02:42;;;;;;;20.67;19.17;;;4.70;99.90;;;;;;5014764;28;20267;-79
2023/12/15 06:05:09;;;;;;;20.90;19.30;;;4.70;99.90;;;;;;5033797;28;20240;-80
2023/12/15 06:07:37;;;;;;;21.10;19.60;;;4.70;99.90;;;;;;5014946;28;20200;-79
2023/12/15 06:10:05;;;;;;;20.97;19.37;;;4.70;99.90;;;;;;5032349;28;20414;-83
2023/12/15 06:12:32;;;;;;;21.03;19.50;;;4.70;99.90;;;;;;5010059;28;20270;-83
2023/12/15 06:14:59;;;;;;;21.13;19.50;;;4.70;99.90;;;;;;5014685;28;20254;-81
2023/12/15 06:17:25;;;;;;;20.33;19.03;;;4.70;99.90;;;;;;5013407;28;20200;-81
2023/12/15 06:19:52;;;;;;;20.60;19.20;;;4.70;99.90;;;;;;5009210;28;20248;-80
2023/12/15 06:22:19;;;;;;;21.20;19.70;;;4.60;99.90;;;;;;5008747;28;20669;-82
2023/12/15 06:24:47;;;;;;;19.90;18.60;;;4.60;99.90;;;;;;5013973;28;20723;-82
2023/12/15 06:27:14;;;;;;;21.33;19.67;;;4.70;99.90;;;;;;5015210;28;20197;-80
2023/12/15 06:29:41;;;;;;;20.67;19.27;;;4.70;99.90;;;;;;5014037;28;20223;-84
2023/12/15 06:32:10;;;;;;;20.53;19.03;;;4.60;99.90;;;;;;5032562;28;20216;-82
2023/12/15 06:34:37;;;;;;;20.53;19.13;;;4.70;99.90;;;;;;5017624;28;20239;-79
2023/12/15 06:37:04;;;;;;;21.87;20.27;;;4.70;99.90;;;;;;5018088;28;20683;-81
2023/12/15 06:39:31;;;;;;;21.60;20.00;;;4.70;99.90;;;;;;5031530;28;20209;-81
2023/12/15 06:41:59;;;;;;;21.90;20.40;;;4.70;99.90;;;;;;5017466;28;20295;-79
2023/12/15 06:44:26;;;;;;;21.53;19.87;;;4.70;99.90;;;;;;5036034;28;20216;-82
2023/12/15 06:46:53;;;;;;;21.93;20.53;;;4.70;99.90;;;;;;5018736;28;20211;-80
2023/12/15 06:49:21;;;;;;;21.47;19.97;;;4.70;99.90;;;;;;5018296;28;20200;-81
2023/12/15 06:51:48;;;;;;;21.47;20.00;;;4.70;99.90;;;;;;5032545;28;20576;-79
2023/12/15 06:54:14;;;;;;;21.83;20.23;;;4.70;99.90;;;;;;5036024;28;20231;-77
2023/12/15 06:56:41;;;;;;;22.03;20.33;;;4.70;99.90;;;;;;5017837;28;20200;-77
2023/12/15 06:59:09;;;;;;;22.53;20.93;;;4.70;99.90;;;;;;5035621;28;20219;-80
2023/12/15 07:01:36;;;;;;;22.00;20.40;;;4.70;99.90;;;;;;5035079;28;20250;-78
2023/12/15 07:04:03;;;;;;;23.43;21.63;;;4.80;99.90;;;;;;5016177;28;20338;-78
2023/12/15 07:06:30;;;;;;;22.97;21.23;;;4.80;99.90;;;;;;5016373;28;20209;-77
2023/12/15 07:08:56;;;;;;;22.17;20.57;;;4.70;99.90;;;;;;5034135;28;20243;-77
2023/12/15 07:11:23;;;;;;;22.23;20.53;;;4.70;99.90;;;;;;5017891;28;20200;-78
2023/12/15 07:13:50;;;;;;;22.37;20.67;;;4.70;99.90;;;;;;5035833;28;20223;-77
2023/12/15 07:16:18;;;;;;;23.67;21.87;;;4.70;99.90;;;;;;5018113;28;20239;-78
2023/12/15 07:18:45;;;;;;;23.43;21.73;;;4.70;99.90;;;;;;5036023;28;20282;-77
2023/12/15 07:21:12;;;;;;;23.43;21.67;;;4.70;99.90;;;;;;5018166;28;20567;-78
2023/12/15 07:23:39;;;;;;;22.13;20.53;;;4.70;99.90;;;;;;5035989;28;20199;-77
2023/12/15 07:26:06;;;;;;;23.60;21.60;;;4.80;99.90;;;;;;5017565;28;20216;-78
2023/12/15 07:28:34;;;;;;;22.60;20.90;;;4.80;99.90;;;;;;5017655;28;20208;-77
2023/12/15 07:31:00;;;;;;;23.87;21.87;;;4.80;99.90;;;;;;5035913;28;20188;-78
2023/12/15 07:33:29;;;;;;;23.00;21.20;;;4.80;99.90;;;;;;5035270;28;20212;-78
2023/12/15 07:35:55;;;;;;;23.23;21.43;;;4.80;99.90;;;;;;5035499;28;20251;-78
2023/12/15 07:38:22;;;;;;;22.37;20.67;;;4.80;99.90;;;;;;5017606;28;20257;-78
2023/12/15 07:40:53;;;;;;;22.83;21.03;;;4.80;99.90;;;;;;5027394;28;20624;-78
2023/12/15 07:43:20;;;;;;;23.30;21.43;;;4.80;99.90;;;;;;5035469;28;20746;-77
2023/12/15 07:45:47;;;;;;;22.73;21.03;;;4.80;99.90;;;;;;5034125;28;20240;-78
2023/12/15 07:48:14;;;;;;;22.47;20.77;;;4.80;99.90;;;;;;5017687;28;20287;-78
2023/12/15 07:50:42;;;;;;;23.70;21.70;;;4.80;99.90;;;;;;5035034;28;20227;-77
2023/12/15 07:53:09;;;;;;;22.67;20.77;;;4.80;99.90;;;;;;5017902;28;20204;-77
2023/12/15 07:55:36;;;;;;;21.87;20.13;;;4.80;99.90;;;;;;5035201;28;20228;-78
2023/12/15 07:58:03;;;;;;;21.83;20.13;;;4.80;99.90;;;;;;5017544;28;20229;-79
2023/12/15 08:00:30;;;;;;;22.27;20.43;;;4.90;99.90;;;;;;5036340;28;20204;-79
2023/12/15 08:02:57;;;;;;;22.93;21.20;;;4.90;99.90;;;;;;5016709;28;20288;-79
2023/12/15 08:05:24;;;;;;;22.10;20.40;;;4.90;99.90;;;;;;5033975;28;20212;-78
2023/12/15 08:07:52;;;;;;;22.40;20.60;;;5.00;99.90;;;;;;5025910;28;20235;-77
2023/12/15 08:10:18;;;;;;;21.43;19.93;;;5.00;99.90;;;;;;5012151;28;20250;-77
2023/12/15 08:12:45;;;;;;;21.93;20.23;;;5.00;99.90;;;;;;5016194;28;20216;-79
2023/12/15 08:15:12;;;;;;;23.17;21.27;;;5.00;99.90;;;;;;5032891;28;20217;-78
2023/12/15 08:17:39;;;;;;;22.67;20.63;;;5.10;99.90;;;;;;5032085;28;20644;-79
2023/12/15 08:20:07;;;;;;;22.87;21.03;;;5.10;99.90;;;;;;5006190;28;20201;-79
2023/12/15 08:22:34;;;;;;;22.27;20.53;;;5.20;99.90;;;;;;5014177;28;20840;-78
2023/12/15 08:25:02;;;;;;;23.37;21.37;;;5.20;99.90;;;;;;5032549;28;20738;-79
2023/12/15 08:27:29;;;;;;;21.90;20.20;;;5.20;99.90;;;;;;5015090;28;20224;-79
2023/12/15 08:29:59;;;;;;;24.03;22.00;;;5.30;99.90;;;;;;5033699;28;20204;-82
2023/12/15 08:32:25;;;;;;;22.87;21.17;;;5.30;99.90;;;;;;5033883;28;20212;-81
2023/12/15 08:34:52;;;;;;;22.40;20.60;;;5.30;99.90;;;;;;5033489;28;20217;-79
2023/12/15 08:37:19;;;;;;;22.57;20.77;;;5.40;99.90;;;;;;5015285;28;20251;-79
2023/12/15 08:39:46;;;;;;;22.70;20.90;;;5.40;99.90;;;;;;5015027;28;20215;-79
2023/12/15 08:42:14;;;;;;;23.00;21.30;;;5.50;99.90;;;;;;5033292;28;20209;-79
2023/12/15 08:44:43;;;;;;;22.67;20.97;;;5.50;99.90;;;;;;5032795;28;20795;-79
2023/12/15 08:47:10;;;;;;;24.40;22.60;;;5.50;99.90;;;;;;5009421;28;20201;-79
2023/12/15 08:49:37;;;;;;;24.43;22.53;;;5.60;99.90;;;;;;5040739;28;20213;-79
2023/12/15 08:52:04;;;;;;;23.53;21.80;;;5.60;99.90;;;;;;5015562;28;20225;-79
2023/12/15 08:54:31;;;;;;;23.73;21.93;;;5.70;99.90;;;;;;5013190;28;20230;-78
2023/12/15 08:56:58;;;;;;;23.13;21.33;;;5.70;99.90;;;;;;5014664;28;20289;-79
2023/12/15 08:59:26;;;;;;;23.03;21.27;;;5.80;99.90;;;;;;5032989;28;20201;-79
2023/12/15 09:01:53;;;;;;;23.93;22.13;;;5.90;99.90;;;;;;5033095;28;20202;-81
2023/12/15 09:04:19;;;;;;;24.10;21.93;;;5.90;99.90;;;;;;5005539;28;20225;-79
2023/12/15 09:06:46;;;;;;;23.00;21.07;;;6.00;99.90;;;;;;5033918;28;20206;-79
2023/12/15 09:09:13;;;;;;;22.97;20.93;;;6.00;99.90;;;;;;5033624;28;20194;-80
2023/12/15 09:11:40;;;;;;;22.40;20.70;;;6.00;99.90;;;;;;5032517;28;20288;-80
2023/12/15 09:14:07;;;;;;;21.10;19.47;;;6.10;99.90;;;;;;5027028;28;20679;-78
2023/12/15 09:16:35;;;;;;;20.23;18.70;;;6.10;99.90;;;;;;5032814;28;20580;-79
2023/12/15 09:19:02;;;;;;;20.33;18.70;;;6.10;99.90;;;;;;5016648;28;20232;-79
2023/12/15 09:21:29;;;;;;;20.37;18.57;;;6.20;99.90;;;;;;5032369;28;20268;-79
2023/12/15 09:23:56;;;;;;;19.90;18.40;;;6.20;99.90;;;;;;5016206;28;20973;-79
2023/12/15 09:26:23;;;;;;;19.57;18.03;;;6.30;99.90;;;;;;5025545;28;20655;-80
2023/12/15 09:28:50;;;;;;;19.13;17.63;;;6.30;99.90;;;;;;5013567;28;20281;-79
2023/12/15 09:31:16;;;;;;;20.30;18.53;;;6.40;99.90;;;;;;5033048;28;20697;-79
2023/12/15 09:34:28;;;;;;;19.03;17.53;;;6.40;99.90;;;;;;5035079;28;20202;-79
2023/12/15 09:36:56;;;;;;;19.90;18.30;;;6.50;99.90;;;;;;5027223;28;20320;-81
2023/12/15 09:39:23;;;;;;;19.47;17.97;;;6.50;99.90;;;;;;5033028;28;20584;-77
2023/12/15 09:41:50;;;;;;;19.33;17.83;;;6.50;99.90;;;;;;5014404;28;20234;-78
2023/12/15 09:44:18;;;;;;;18.50;17.10;;;6.50;99.90;;;;;;5033869;28;20674;-77
2023/12/15 09:46:45;;;;;;;18.97;17.60;;;6.50;99.90;;;;;;5018672;28;20291;-78
2023/12/15 09:49:17;;;;;;;19.53;18.03;;;6.60;99.90;;;;;;5037106;28;20256;-82
2023/12/15 09:51:49;;;;;;;19.23;17.63;;;6.60;99.90;;;;;;5043557;28;20202;-79
2023/12/15 09:54:18;;;;;;;20.03;18.57;;;6.60;99.90;;;;;;5016504;28;20617;-79
2023/12/15 09:56:46;;;;;;;19.03;17.63;;;6.70;99.90;;;;;;5018507;28;20572;-79
2023/12/15 09:59:13;;;;;;;18.63;17.20;;;6.70;99.90;;;;;;5021904;28;20213;-79
2023/12/15 10:01:40;;;;;;;14.07;12.80;;;6.70;99.90;;;;;;5020686;28;20238;-80
2023/12/15 10:04:07;;;;;;;12.93;11.83;;;6.80;99.90;;;;;;5014944;28;20265;-80
2023/12/15 10:06:37;;;;;;;10.90;8.80;;;6.80;99.90;;;;;;5037308;28;20200;-78
2023/12/15 10:09:09;;;;;;;9.87;8.37;;;6.90;99.90;;;;;;5035323;28;20671;-80
2023/12/15 10:11:38;;;;;;;12.17;11.07;;;6.90;99.90;;;;;;5043156;28;20679;-77
2023/12/15 10:14:07;;;;;;;16.10;14.70;;;6.90;99.90;;;;;;5039416;28;20195;-77
2023/12/15 10:16:34;;;;;;;13.07;12.07;;;6.90;99.90;;;;;;5026379;28;20225;-78
2023/12/15 10:19:03;;;;;;;10.97;9.87;;;7.00;99.90;;;;;;5049402;28;20230;-78
2023/12/15 10:21:31;;;;;;;10.87;9.87;;;7.10;99.90;;;;;;5013988;28;20234;-78
2023/12/15 10:23:58;;;;;;;14.87;13.67;;;7.10;99.90;;;;;;5042442;28;20608;-78
2023/12/15 10:26:25;;;;;;;10.03;9.10;;;7.10;99.90;;;;;;5019784;28;20230;-77
2023/12/15 10:28:54;;;;;;;12.53;11.43;;;7.20;99.90;;;;;;5030034;28;20226;-81
2023/12/15 10:31:21;;;;;;;12.10;10.90;;;7.20;99.90;;;;;;5034531;28;20195;-78
2023/12/15 10:33:49;;;;;;;17.07;15.77;;;7.20;99.90;;;;;;5031623;28;20652;-77
2023/12/15 10:36:16;;;;;;;16.90;15.60;;;7.30;99.90;;;;;;5035090;28;20230;-77
2023/12/15 10:38:43;;;;;;;16.87;15.50;;;7.40;99.90;;;;;;5034959;28;20223;-76
2023/12/15 10:41:10;;;;;;;17.53;16.23;;;7.40;99.90;;;;;;5042814;28;20200;-77
2023/12/15 10:43:39;;;;;;;17.43;16.23;;;7.40;99.90;;;;;;5012243;28;20223;-77
2023/12/15 10:46:09;;;;;;;18.00;16.70;;;7.40;99.90;;;;;;5031920;28;20637;-78
2023/12/15 10:48:39;;;;;;;17.57;16.33;;;7.40;99.90;;;;;;5031967;28;20282;-77
2023/12/15 10:51:08;;;;;;;17.83;16.53;;;7.40;99.90;;;;;;5015122;28;20196;-77
2023/12/15 10:53:35;;;;;;;17.13;15.93;;;7.50;99.90;;;;;;5037326;28;20200;-77
2023/12/15 10:56:02;;;;;;;16.53;15.40;;;7.50;99.90;;;;;;5036089;28;20703;-76
2023/12/15 10:58:30;;;;;;;16.53;15.43;;;7.50;99.90;;;;;;5034355;28;20196;-76
2023/12/15 11:00:57;;;;;;;17.13;15.93;;;7.50;99.90;;;;;;5034491;28;20592;-75
2023/12/15 11:03:25;;;;;;;16.73;15.53;;;7.60;99.90;;;;;;5034443;28;20192;-75
2023/12/15 11:05:52;;;;;;;16.20;15.10;;;7.60;99.90;;;;;;5034037;28;20223;-76
2023/12/15 11:08:19;;;;;;;16.67;15.47;;;7.70;99.90;;;;;;5034235;28;20629;-76
2023/12/15 11:10:46;;;;;;;16.37;15.23;;;7.70;99.90;;;;;;5016202;28;20207;-76
2023/12/15 11:13:53;;;;;;;17.10;15.80;;;7.80;99.90;;;;;;5016486;28;20203;-76
2023/12/15 11:16:23;;;;;;;16.53;15.33;;;7.80;99.90;;;;;;4937274;29;20230;-76
2023/12/15 11:18:52;;;;;;;17.50;16.30;;;7.80;99.90;;;;;;4928615;29;20241;-76
2023/12/15 11:21:20;;;;;;;15.73;14.73;;;7.90;99.90;;;;;;4996871;28;20207;-77
2023/12/15 11:23:58;;;;;;;16.40;15.30;;;8.00;99.90;;;;;;5034862;28;20204;-77
2023/12/15 11:26:30;;;;;;;16.67;15.47;;;8.00;99.90;;;;;;5017540;28;20229;-77
2023/12/15 11:29:04;;;;;;;15.93;14.93;;;8.20;99.90;;;;;;5009118;28;20212;-76
2023/12/15 11:31:33;;;;;;;17.17;15.97;;;8.20;99.90;;;;;;5016775;28;20199;-77
2023/12/15 11:34:03;;;;;;;17.17;16.07;;;8.20;99.90;;;;;;5034830;28;20202;-77
2023/12/15 11:36:31;;;;;;;17.17;15.97;;;8.30;99.90;;;;;;5028799;28;20301;-78
2023/12/15 11:38:59;;;;;;;16.67;15.57;;;8.30;99.90;;;;;;5016418;28;20228;-77
2023/12/15 11:41:26;;;;;;;16.53;15.27;;;8.30;99.90;;;;;;5016479;28;20269;-77
2023/12/15 11:43:53;;;;;;;17.40;16.20;;;8.30;99.90;;;;;;5034435;28;20323;-77
2023/12/15 11:46:21;;;;;;;17.33;16.13;;;8.30;99.90;;;;;;5016618;28;20211;-77
2023/12/15 11:48:48;;;;;;;16.73;15.60;;;8.30;99.90;;;;;;5033765;28;20203;-77
2023/12/15 11:51:17;;;;;;;16.93;15.83;;;8.40;99.90;;;;;;5016611;28;20583;-77
2023/12/15 11:53:47;;;;;;;16.50;15.40;;;8.30;99.90;;;;;;5016632;28;20203;-77
2023/12/15 11:56:15;;;;;;;17.23;16.03;;;8.30;99.90;;;;;;5046758;22;20250;-84
2023/12/15 11:58:42;;;;;;;16.13;15.03;;;8.30;99.90;;;;;;5012183;28;20247;-79
2023/12/15 12:01:09;;;;;;;16.93;15.63;;;8.30;99.90;;;;;;5016120;28;20200;-79
2023/12/15 12:03:36;;;;;;;17.27;15.87;;;8.40;99.90;;;;;;5034065;28;20235;-79
2023/12/15 12:06:05;;;;;;;15.87;14.77;;;8.40;99.90;;;;;;5006062;28;20591;-79
2023/12/15 12:08:34;;;;;;;16.57;15.47;;;8.40;99.90;;;;;;5014623;28;20200;-80
2023/12/15 12:11:01;;;;;;;16.00;14.90;;;8.40;99.90;;;;;;4999913;28;20203;-79
2023/12/15 12:13:33;;;;;;;16.67;15.37;;;8.50;99.90;;;;;;4988256;28;20205;-79
2023/12/15 12:16:01;;;;;;;16.00;14.90;;;8.50;99.90;;;;;;4993448;28;20220;-79
2023/12/15 12:18:30;;;;;;;16.23;15.17;;;8.50;99.90;;;;;;4995669;28;20196;-80
2023/12/15 12:20:58;;;;;;;15.97;14.87;;;8.50;99.90;;;;;;5020637;28;20208;-80
2023/12/15 12:23:27;;;;;;;15.97;14.77;;;8.60;99.90;;;;;;4994578;28;20216;-81
2023/12/15 12:25:56;;;;;;;16.43;15.27;;;8.60;99.90;;;;;;5013203;28;20228;-80
2023/12/15 12:28:23;;;;;;;16.60;15.40;;;8.60;99.90;;;;;;4998434;28;20243;-80
2023/12/15 12:30:50;;;;;;;16.40;15.20;;;8.60;99.90;;;;;;5026654;28;20210;-80
2023/12/15 12:33:18;;;;;;;15.83;14.83;;;8.60;99.90;;;;;;4994989;28;20197;-81
2023/12/15 12:35:46;;;;;;;15.63;14.53;;;8.50;99.90;;;;;;5002225;28;20228;-80
2023/12/15 12:38:13;;;;;;;15.73;14.53;;;8.50;99.90;;;;;;5000729;28;20225;-80
2023/12/15 12:40:39;;;;;;;15.30;14.40;;;8.50;99.90;;;;;;4999109;28;20586;-80